Time;durP1;ratioP1;P1;durP2;ratioP2;P2;SDS_P1;SDS_P2;PMS_P1;PMS_P2;Temp;Humidity;BMP_temperature;BMP_pressure;BME280_temperature;BME280_humidity;BME280_pressure;Samples;Min_cycle;Max_cycle;Signal;HPM_P1;HPM_P2
2023/08/13 00:00:43;;;;;;;3.72;2.38;;;;;;;20.79;45.06;94305.88;5076432;28;20024;-79
2023/08/13 00:03:08;;;;;;;3.75;2.40;;;;;;;20.82;45.09;94308.63;5075835;28;20029;-79
2023/08/13 00:05:34;;;;;;;2.95;2.20;;;;;;;20.78;45.31;94307.00;5074621;28;20024;-80
2023/08/13 00:07:59;;;;;;;2.47;2.20;;;;;;;20.72;45.21;94301.16;5074534;28;20027;-78
2023/08/13 00:10:24;;;;;;;3.03;2.28;;;;;;;20.72;45.04;94300.38;5075123;28;20122;-78
2023/08/13 00:12:50;;;;;;;4.00;2.10;;;;;;;20.57;44.99;94285.88;5073768;28;20047;-79
2023/08/13 00:15:15;;;;;;;3.00;2.08;;;;;;;20.68;46.46;94319.22;5072821;28;20126;-77
2023/08/13 00:17:41;;;;;;;3.45;2.25;;;;;;;20.55;46.96;94310.56;5083250;28;20035;-79
2023/08/13 00:20:07;;;;;;;2.72;2.53;;;;;;;20.48;46.74;94294.22;5074257;28;20035;-80
2023/08/13 00:22:32;;;;;;;2.03;1.85;;;;;;;20.47;46.37;94306.22;5073012;28;20039;-79
2023/08/13 00:24:58;;;;;;;4.03;2.08;;;;;;;20.46;46.84;94320.84;5073977;28;20314;-80
2023/08/13 00:27:23;;;;;;;4.68;2.53;;;;;;;20.41;47.00;94326.56;5075936;28;20491;-78
2023/08/13 00:29:49;;;;;;;4.00;2.13;;;;;;;20.30;47.32;94312.09;5071788;28;20051;-77
2023/08/13 00:32:14;;;;;;;4.00;2.88;;;;;;;20.36;47.36;94328.78;5079311;28;20055;-78
2023/08/13 00:34:40;;;;;;;2.65;2.40;;;;;;;20.26;47.30;94319.38;5081559;28;20461;-78
2023/08/13 00:37:06;;;;;;;4.22;2.63;;;;;;;20.27;46.81;94315.53;5081090;27;20050;-77
2023/08/13 00:39:31;;;;;;;3.67;2.70;;;;;;;20.28;46.53;94319.03;5081955;27;20043;-79
2023/08/13 00:41:56;;;;;;;4.63;2.85;;;;;;;20.22;47.12;94323.16;5078652;28;20487;-77
2023/08/13 00:44:23;;;;;;;3.15;2.80;;;;;;;20.24;47.38;94321.66;5082653;28;20031;-81
2023/08/13 00:46:50;;;;;;;2.90;2.70;;;;;;;20.21;47.34;94321.59;4991313;28;20410;-78
2023/08/13 00:49:15;;;;;;;3.20;2.42;;;;;;;20.18;47.73;94328.50;5051760;28;20051;-78
2023/08/13 00:51:42;;;;;;;4.40;2.42;;;;;;;20.17;47.15;94321.53;5080002;28;20107;-77
2023/08/13 00:54:08;;;;;;;2.60;2.40;;;;;;;20.10;47.46;94327.56;5081507;28;20468;-78
2023/08/13 00:56:35;;;;;;;3.45;2.80;;;;;;;20.06;47.54;94321.34;5080591;28;20020;-80
2023/08/13 00:59:01;;;;;;;3.08;2.78;;;;;;;20.02;47.24;94325.91;5082220;28;20035;-78
2023/08/13 01:01:26;;;;;;;4.28;2.60;;;;;;;20.00;47.39;94322.00;5079222;28;20097;-79
2023/08/13 01:03:52;;;;;;;4.18;2.55;;;;;;;19.97;47.94;94320.81;5082050;28;20101;-78
2023/08/13 01:06:41;;;;;;;4.15;2.90;;;;;;;19.66;48.03;94283.22;5082381;28;20120;-78
2023/08/13 01:09:18;;;;;;;2.72;2.30;;;;;;;19.88;47.67;94314.88;5080392;28;20036;-80
2023/08/13 01:11:55;;;;;;;4.25;3.08;;;;;;;19.87;47.99;94312.50;5079108;28;20353;-76
2023/08/13 01:14:28;;;;;;;3.80;2.72;;;;;;;19.72;48.03;94301.47;5083068;28;20024;-77
2023/08/13 01:16:56;;;;;;;5.72;3.28;;;;;;;19.66;48.37;94313.69;5081643;28;20630;-78
2023/08/13 01:19:22;;;;;;;3.00;2.70;;;;;;;19.62;48.64;94312.06;5080635;28;20069;-77
2023/08/13 01:21:48;;;;;;;3.40;2.90;;;;;;;19.53;48.89;94309.59;5080177;28;20040;-80
2023/08/13 01:24:13;;;;;;;6.05;2.92;;;;;;;19.52;48.84;94308.03;5080889;28;20125;-77
2023/08/13 01:26:55;;;;;;;6.03;3.30;;;;;;;19.53;48.83;94304.22;5079059;28;20125;-79
2023/08/13 01:29:37;;;;;;;3.47;3.17;;;;;;;19.50;48.66;94296.84;5078133;28;20027;-78
2023/08/13 01:32:06;;;;;;;3.17;2.88;;;;;;;19.51;48.22;94301.09;5081013;28;20051;-78
2023/08/13 01:34:32;;;;;;;3.03;2.70;;;;;;;19.52;48.25;94302.66;5082647;28;20587;-78
2023/08/13 01:36:58;;;;;;;2.85;2.40;;;;;;;19.58;48.20;94305.84;5076453;28;20054;-79
2023/08/13 01:39:23;;;;;;;4.60;2.97;;;;;;;19.43;48.68;94299.38;5079581;28;21087;-77
2023/08/13 01:41:54;;;;;;;4.15;2.70;;;;;;;19.35;48.82;94305.78;5097518;27;20028;-79
2023/08/13 01:44:20;;;;;;;5.28;3.10;;;;;;;19.31;48.76;94296.84;5078406;28;20077;-79
2023/08/13 01:46:46;;;;;;;3.47;2.97;;;;;;;19.33;48.89;94314.22;5075777;28;20566;-79
2023/08/13 01:49:11;;;;;;;7.05;3.58;;;;;;;19.30;49.03;94311.47;5076339;28;20043;-78
2023/08/13 01:51:36;;;;;;;5.10;2.90;;;;;;;18.96;49.24;94277.25;5076716;28;20143;-79
2023/08/13 01:54:02;;;;;;;3.50;3.10;;;;;;;19.13;49.38;94309.19;5076155;28;20464;-77
2023/08/13 01:56:27;;;;;;;5.32;3.13;;;;;;;19.08;49.76;94304.06;5077994;28;20093;-78
2023/08/13 01:58:53;;;;;;;4.97;3.05;;;;;;;19.04;49.86;94311.31;5078240;28;20079;-78
2023/08/13 02:01:18;;;;;;;4.22;2.90;;;;;;;18.97;49.83;94309.22;5070332;28;20163;-77
2023/08/13 02:03:46;;;;;;;3.97;2.92;;;;;;;18.94;50.09;94298.38;5027691;28;20035;-80
2023/08/13 02:06:11;;;;;;;3.92;3.28;;;;;;;18.98;50.04;94304.63;5017123;28;21490;-78
2023/08/13 02:08:36;;;;;;;5.25;3.22;;;;;;;19.00;50.19;94307.75;5077838;28;20031;-80
2023/08/13 02:11:02;;;;;;;3.85;3.28;;;;;;;18.93;50.10;94303.00;5078440;28;20023;-78
2023/08/13 02:13:27;;;;;;;5.90;2.95;;;;;;;18.81;50.42;94290.44;5080058;28;20092;-78
2023/08/13 02:15:53;;;;;;;4.22;3.17;;;;;;;18.82;50.44;94291.22;5074601;28;20090;-77
2023/08/13 02:18:18;;;;;;;4.03;3.38;;;;;;;18.74;50.96;94292.97;5076855;28;20032;-78
2023/08/13 02:20:43;;;;;;;3.42;3.00;;;;;;;18.73;51.04;94299.50;5076180;28;20469;-77
2023/08/13 02:23:09;;;;;;;5.57;3.60;;;;;;;18.53;51.21;94283.66;5074825;28;20123;-80
2023/08/13 02:25:34;;;;;;;3.20;2.88;;;;;;;18.54;51.07;94294.03;5077913;28;20098;-78
2023/08/13 02:28:00;;;;;;;3.65;3.35;;;;;;;18.51;51.51;94302.84;5076341;28;22013;-79
2023/08/13 02:30:25;;;;;;;3.58;3.05;;;;;;;18.42;51.77;94302.25;5093639;27;20566;-80
2023/08/13 02:32:50;;;;;;;3.53;2.95;;;;;;;18.36;51.75;94301.75;5076270;28;20079;-77
2023/08/13 02:35:16;;;;;;;3.50;3.00;;;;;;;18.39;52.10;94311.00;5075180;28;20551;-77
2023/08/13 02:37:41;;;;;;;3.78;3.47;;;;;;;18.37;51.78;94297.13;5077565;28;20341;-80
2023/08/13 02:40:07;;;;;;;3.90;3.22;;;;;;;18.38;51.87;94304.09;5077191;28;20445;-79
2023/08/13 02:42:33;;;;;;;4.05;3.30;;;;;;;18.37;51.82;94308.69;5074132;28;20040;-80
2023/08/13 02:44:58;;;;;;;4.57;3.63;;;;;;;18.31;52.04;94298.53;5077439;28;20055;-78
2023/08/13 02:47:24;;;;;;;4.72;3.35;;;;;;;18.26;52.34;94313.03;5074627;28;20058;-78
2023/08/13 02:49:50;;;;;;;4.70;3.40;;;;;;;18.20;52.66;94319.03;5077658;28;20701;-80
2023/08/13 02:52:15;;;;;;;3.17;2.88;;;;;;;18.04;52.85;94303.66;5075558;28;20047;-78
2023/08/13 02:54:41;;;;;;;4.00;3.55;;;;;;;18.01;52.87;94300.91;5076062;28;20059;-80
2023/08/13 02:57:06;;;;;;;5.47;4.13;;;;;;;17.96;52.81;94293.88;5075507;28;20804;-78
2023/08/13 02:59:32;;;;;;;3.83;3.45;;;;;;;17.84;53.09;94275.09;5076745;28;20024;-77
2023/08/13 03:01:57;;;;;;;6.32;3.65;;;;;;;17.97;53.03;94300.03;5076181;28;20126;-77
2023/08/13 03:04:23;;;;;;;3.70;3.30;;;;;;;17.95;53.49;94308.44;5074343;28;20044;-78
2023/08/13 03:06:49;;;;;;;4.78;3.08;;;;;;;17.94;53.45;94317.63;5076139;28;20416;-80
2023/08/13 03:09:23;;;;;;;5.13;3.33;;;;;;;17.90;53.66;94310.56;5077407;28;20031;-78
2023/08/13 03:11:49;;;;;;;4.90;3.80;;;;;;;17.91;53.55;94306.75;5078168;28;20131;-79
2023/08/13 03:14:15;;;;;;;5.85;3.90;;;;;;;17.86;53.69;94309.72;5076913;28;20015;-78
2023/08/13 03:16:40;;;;;;;3.95;3.10;;;;;;;17.89;53.95;94325.19;5075597;28;20427;-78
2023/08/13 03:19:06;;;;;;;4.25;3.85;;;;;;;17.75;54.10;94305.97;5074194;28;20058;-80
2023/08/13 03:21:31;;;;;;;8.88;3.20;;;;;;;17.83;54.13;94321.97;5077038;28;20036;-79
2023/08/13 03:23:56;;;;;;;5.57;4.05;;;;;;;17.65;54.30;94299.19;5092483;27;20120;-79
2023/08/13 03:26:22;;;;;;;5.40;4.00;;;;;;;17.71;54.32;94313.97;5075987;28;20028;-78
2023/08/13 03:28:47;;;;;;;5.40;3.80;;;;;;;17.83;54.13;94319.28;5075611;28;20749;-78
2023/08/13 03:31:13;;;;;;;4.75;3.83;;;;;;;17.79;54.00;94323.78;5078587;28;20032;-78
2023/08/13 03:33:38;;;;;;;3.92;3.50;;;;;;;17.72;54.48;94331.66;5074721;28;20036;-78
2023/08/13 03:36:04;;;;;;;5.53;3.55;;;;;;;17.57;54.84;94308.22;5076502;28;20043;-78
2023/08/13 03:38:30;;;;;;;5.03;4.47;;;;;;;17.57;54.49;94314.38;5077728;28;20060;-77
2023/08/13 03:40:56;;;;;;;4.82;4.32;;;;;;;17.65;54.55;94312.63;5077930;28;20152;-79
2023/08/13 03:43:21;;;;;;;6.20;3.33;;;;;;;17.68;54.33;94317.34;5074111;28;20028;-79
2023/08/13 03:45:46;;;;;;;4.05;3.65;;;;;;;17.63;54.18;94306.06;5076585;28;20062;-80
2023/08/13 03:48:12;;;;;;;6.18;3.50;;;;;;;17.53;54.26;94297.38;5074584;28;20044;-80
2023/08/13 03:50:42;;;;;;;5.63;3.20;;;;;;;17.55;54.58;94311.22;5075935;28;20387;-79
2023/08/13 03:53:08;;;;;;;4.00;3.45;;;;;;;17.57;54.92;94318.97;5076466;28;20113;-79
2023/08/13 03:55:34;;;;;;;4.82;3.42;;;;;;;17.52;55.24;94321.91;5077306;28;20443;-77
2023/08/13 03:57:59;;;;;;;3.55;3.25;;;;;;;17.38;55.54;94311.56;5089920;27;20040;-80
2023/08/13 04:00:24;;;;;;;5.00;3.55;;;;;;;17.45;55.39;94308.28;5074895;28;20031;-79
2023/08/13 04:02:50;;;;;;;5.03;3.22;;;;;;;17.48;55.45;94318.34;5075025;28;20580;-79
2023/08/13 04:05:15;;;;;;;5.07;3.28;;;;;;;17.53;55.69;94324.25;5076694;28;20042;-77
2023/08/13 04:07:41;;;;;;;3.67;3.33;;;;;;;17.59;55.53;94330.19;5074834;28;20059;-78
2023/08/13 04:10:07;;;;;;;4.25;3.85;;;;;;;17.64;55.54;94329.94;5077428;28;20036;-78
2023/08/13 04:12:32;;;;;;;3.53;3.22;;;;;;;17.62;55.79;94321.41;5073370;28;20044;-78
2023/08/13 04:14:58;;;;;;;4.75;3.88;;;;;;;17.67;55.95;94334.59;5078248;28;20672;-78
2023/08/13 04:17:23;;;;;;;6.00;3.50;;;;;;;17.75;55.52;94341.72;5073564;28;20031;-78
2023/08/13 04:19:50;;;;;;;4.28;3.45;;;;;;;17.77;55.55;94339.47;5077158;28;20039;-77
2023/08/13 04:22:15;;;;;;;6.65;3.30;;;;;;;17.72;55.21;94328.97;5074233;28;20067;-77
2023/08/13 04:24:40;;;;;;;5.38;3.58;;;;;;;17.80;55.08;94341.47;5073440;28;20118;-79
2023/08/13 04:27:06;;;;;;;4.28;3.70;;;;;;;17.92;54.01;94354.88;5066519;28;20515;-79
2023/08/13 04:29:31;;;;;;;5.45;3.88;;;;;;;17.88;53.15;94337.06;5074912;28;20059;-77
2023/08/13 04:31:57;;;;;;;5.43;3.90;;;;;;;18.06;53.35;94345.59;5074920;28;20031;-80
2023/08/13 04:34:22;;;;;;;5.65;3.85;;;;;;;18.11;52.85;94354.19;5077335;28;20032;-79
2023/08/13 04:36:47;;;;;;;5.25;4.22;;;;;;;18.20;52.75;94362.88;5071921;28;20491;-79
2023/08/13 04:39:13;;;;;;;4.05;3.58;;;;;;;18.25;52.27;94345.69;5077133;28;20039;-78
2023/08/13 04:41:40;;;;;;;4.68;4.18;;;;;;;18.40;52.04;94361.06;5077162;28;20039;-78
2023/08/13 04:44:06;;;;;;;4.05;3.45;;;;;;;18.33;52.19;94340.13;5077239;28;20027;-77
2023/08/13 04:46:32;;;;;;;5.57;3.80;;;;;;;18.44;51.58;94349.22;5074016;28;20029;-80
2023/08/13 04:48:57;;;;;;;4.68;3.72;;;;;;;18.54;51.34;94353.31;5075743;28;20036;-77
2023/08/13 04:51:22;;;;;;;4.68;3.75;;;;;;;18.56;51.29;94353.75;5072580;28;20040;-80
2023/08/13 04:53:48;;;;;;;7.00;4.43;;;;;;;18.56;51.26;94364.53;5076441;28;20433;-78
2023/08/13 04:56:13;;;;;;;3.97;3.63;;;;;;;18.46;51.02;94360.44;5075099;28;20063;-77
2023/08/13 04:58:39;;;;;;;5.10;4.00;;;;;;;18.40;51.04;94363.75;5067418;28;20067;-80
2023/08/13 05:01:06;;;;;;;5.18;3.97;;;;;;;18.56;51.34;94361.03;5072829;28;20035;-79
2023/08/13 05:03:32;;;;;;;6.28;3.70;;;;;;;18.65;51.02;94367.03;5078073;28;20042;-77
2023/08/13 05:05:57;;;;;;;9.63;4.38;;;;;;;18.70;50.96;94354.09;5075985;28;20069;-79
2023/08/13 05:08:23;;;;;;;7.47;4.45;;;;;;;18.89;50.92;94359.53;5072634;28;20399;-78
2023/08/13 05:10:49;;;;;;;4.97;3.65;;;;;;;18.88;50.96;94357.94;5074552;28;20078;-78
2023/08/13 05:13:14;;;;;;;10.57;4.68;;;;;;;18.84;50.71;94354.41;5073350;28;20457;-80
2023/08/13 05:15:40;;;;;;;13.02;4.07;;;;;;;18.81;51.01;94362.41;5075125;28;20743;-80
2023/08/13 05:18:06;;;;;;;10.63;4.43;;;;;;;18.71;50.48;94377.22;5074230;28;20036;-80
2023/08/13 05:20:32;;;;;;;10.65;3.80;;;;;;;18.94;50.90;94376.53;5084632;28;20024;-80
2023/08/13 05:22:57;;;;;;;9.38;4.40;;;;;;;19.04;50.69;94368.69;5085665;28;20016;-78
2023/08/13 05:25:23;;;;;;;9.07;4.43;;;;;;;19.08;50.42;94364.16;5079116;28;20123;-78
2023/08/13 05:27:48;;;;;;;4.63;4.05;;;;;;;19.16;50.25;94370.50;5079411;28;20038;-78
2023/08/13 05:30:14;;;;;;;3.97;3.67;;;;;;;19.09;50.18;94354.94;5077458;28;20487;-78
2023/08/13 05:32:39;;;;;;;5.45;3.92;;;;;;;19.20;49.35;94365.94;5079801;28;20098;-78
2023/08/13 05:35:05;;;;;;;5.13;3.83;;;;;;;19.32;48.88;94373.88;5077214;28;20245;-77
2023/08/13 05:37:31;;;;;;;6.57;4.28;;;;;;;19.29;49.00;94361.91;5076260;28;20066;-79
2023/08/13 05:39:56;;;;;;;4.78;3.80;;;;;;;19.38;49.60;94367.09;5075309;28;20044;-79
2023/08/13 05:42:22;;;;;;;6.22;4.45;;;;;;;19.26;48.85;94364.53;5076193;28;20032;-78
2023/08/13 05:44:47;;;;;;;6.53;4.65;;;;;;;19.39;49.84;94375.97;5079969;28;20047;-79
2023/08/13 05:47:12;;;;;;;4.40;4.00;;;;;;;18.97;51.28;94346.22;5076272;28;20024;-78
2023/08/13 05:49:38;;;;;;;5.38;4.15;;;;;;;19.26;50.02;94369.94;5074930;28;21572;-77
2023/08/13 05:52:04;;;;;;;7.47;4.18;;;;;;;19.47;50.11;94378.47;5077972;28;20036;-79
2023/08/13 05:54:29;;;;;;;6.00;4.65;;;;;;;19.47;49.40;94358.81;5073648;28;20071;-77
2023/08/13 05:56:54;;;;;;;7.45;5.40;;;;;;;19.74;49.73;94376.69;5070579;28;20028;-78
2023/08/13 05:59:20;;;;;;;5.53;4.60;;;;;;;19.71;50.56;94380.88;5077441;28;20526;-78
2023/08/13 06:01:46;;;;;;;6.38;4.57;;;;;;;19.57;50.55;94369.81;5077046;28;20036;-77
2023/08/13 06:04:11;;;;;;;6.72;3.80;;;;;;;19.73;50.60;94384.00;5078110;28;20117;-80
2023/08/13 06:06:37;;;;;;;8.15;4.65;;;;;;;19.72;50.06;94382.44;5078461;28;20104;-78
2023/08/13 06:09:03;;;;;;;6.05;4.75;;;;;;;20.00;48.93;94384.09;5077179;28;20051;-79
2023/08/13 06:11:29;;;;;;;10.60;4.78;;;;;;;19.74;50.00;94380.16;5077345;28;20455;-78
2023/08/13 06:13:54;;;;;;;5.68;4.53;;;;;;;19.71;49.77;94370.06;5080055;28;20028;-78
2023/08/13 06:16:20;;;;;;;8.68;4.47;;;;;;;20.09;48.63;94392.75;5076491;28;20292;-79
2023/08/13 06:18:45;;;;;;;5.25;4.50;;;;;;;20.13;48.83;94385.50;5075965;28;20495;-80
2023/08/13 06:21:10;;;;;;;7.43;4.35;;;;;;;20.13;48.20;94363.91;5078546;28;20028;-78
2023/08/13 06:23:36;;;;;;;8.68;5.18;;;;;;;20.26;48.76;94384.19;5067031;28;20024;-78
2023/08/13 06:26:01;;;;;;;7.13;4.45;;;;;;;20.33;48.56;94380.84;5071530;28;20055;-79
2023/08/13 06:28:29;;;;;;;5.78;4.78;;;;;;;20.28;48.97;94383.84;5075910;28;20039;-80
2023/08/13 06:30:54;;;;;;;6.88;4.40;;;;;;;20.46;48.01;94380.28;5074844;28;20036;-78
2023/08/13 06:33:20;;;;;;;6.47;5.13;;;;;;;20.64;47.36;94383.25;5075317;28;20054;-79
2023/08/13 06:35:46;;;;;;;7.50;5.10;;;;;;;20.81;46.45;94390.09;5077666;28;20132;-80
2023/08/13 06:38:15;;;;;;;5.00;4.53;;;;;;;20.56;47.54;94376.97;5079534;28;20024;-79
2023/08/13 06:40:40;;;;;;;7.30;4.47;;;;;;;20.51;48.03;94382.69;5083082;28;20104;-77
2023/08/13 06:43:06;;;;;;;7.78;4.65;;;;;;;20.55;47.73;94391.63;5085906;28;20131;-77
2023/08/13 06:45:31;;;;;;;6.50;4.15;;;;;;;20.80;47.44;94383.13;5096018;27;20028;-78
2023/08/13 06:47:57;;;;;;;6.38;4.95;;;;;;;20.96;47.37;94394.59;5083552;28;20289;-77
2023/08/13 06:50:23;;;;;;;6.68;4.30;;;;;;;20.90;47.73;94382.53;5086157;28;20035;-77
2023/08/13 06:52:48;;;;;;;6.45;4.57;;;;;;;21.07;46.91;94384.69;5085627;28;20107;-80
2023/08/13 06:55:14;;;;;;;10.48;5.78;;;;;;;20.86;47.17;94346.53;5083535;28;20625;-78
2023/08/13 06:57:39;;;;;;;6.32;5.32;;;;;;;20.94;47.45;94365.22;5076197;28;20036;-79
2023/08/13 07:00:05;;;;;;;4.90;4.45;;;;;;;20.83;47.46;94366.16;5074086;28;20044;-77
2023/08/13 07:02:31;;;;;;;8.40;5.18;;;;;;;21.30;46.87;94371.88;5074087;28;20867;-79
2023/08/13 07:04:56;;;;;;;4.80;4.20;;;;;;;21.51;46.69;94373.28;5075837;28;20028;-78
2023/08/13 07:07:22;;;;;;;8.30;4.75;;;;;;;21.57;46.83;94374.53;5074291;28;20083;-79
2023/08/13 07:09:47;;;;;;;5.32;4.55;;;;;;;21.41;45.56;94351.13;5075401;28;20043;-78
2023/08/13 07:12:13;;;;;;;7.75;5.55;;;;;;;21.58;45.82;94359.84;5073554;28;20036;-80
2023/08/13 07:14:38;;;;;;;7.82;4.72;;;;;;;21.61;45.24;94353.72;5075030;28;20726;-78
2023/08/13 07:17:04;;;;;;;5.30;4.65;;;;;;;21.51;45.26;94379.47;5092600;27;20391;-78
2023/08/13 07:19:30;;;;;;;5.78;4.40;;;;;;;21.65;45.12;94357.25;5093472;27;20078;-78
2023/08/13 07:21:55;;;;;;;5.57;4.85;;;;;;;21.33;44.59;94360.31;5075768;28;20068;-77
2023/08/13 07:24:20;;;;;;;5.35;4.63;;;;;;;21.52;45.39;94358.59;5073936;28;20521;-78
2023/08/13 07:26:46;;;;;;;9.10;4.85;;;;;;;21.57;44.16;94355.59;5077288;28;20474;-79
2023/08/13 07:29:12;;;;;;;6.57;4.63;;;;;;;21.76;44.14;94352.69;5073975;28;20434;-80
2023/08/13 07:31:37;;;;;;;4.82;3.90;;;;;;;21.61;43.58;94361.84;5093673;27;20048;-78
2023/08/13 07:34:03;;;;;;;7.88;4.13;;;;;;;21.72;43.95;94368.13;5075918;28;20039;-78
2023/08/13 07:36:28;;;;;;;4.60;3.50;;;;;;;21.90;42.57;94349.38;5075572;28;20040;-79
2023/08/13 07:38:54;;;;;;;4.80;3.88;;;;;;;22.18;42.79;94361.28;5078022;28;20040;-77
2023/08/13 07:41:19;;;;;;;10.48;4.00;;;;;;;22.27;42.65;94359.06;5074925;28;20072;-77
2023/08/13 07:43:45;;;;;;;8.15;4.30;;;;;;;22.09;42.36;94346.47;5082752;27;20079;-79
2023/08/13 07:46:10;;;;;;;8.27;4.40;;;;;;;21.77;42.67;94351.56;5076326;28;20486;-78
2023/08/13 07:48:36;;;;;;;6.22;4.07;;;;;;;21.75;42.56;94364.72;5076470;28;20036;-77
2023/08/13 07:51:01;;;;;;;7.20;3.45;;;;;;;22.11;42.94;94355.00;5076614;28;20032;-78
2023/08/13 07:53:29;;;;;;;4.75;3.53;;;;;;;22.04;42.49;94346.81;5074663;28;20480;-78
2023/08/13 07:55:54;;;;;;;7.07;3.38;;;;;;;22.15;41.73;94351.16;5075671;28;20024;-77
2023/08/13 07:58:19;;;;;;;3.78;2.78;;;;;;;22.29;42.22;94345.91;5073799;28;20047;-78
2023/08/13 08:00:45;;;;;;;6.18;3.65;;;;;;;22.42;40.97;94332.06;5075479;28;20048;-77
2023/08/13 08:03:10;;;;;;;4.72;3.00;;;;;;;22.48;41.32;94342.19;5078207;28;20115;-78
2023/08/13 08:05:36;;;;;;;5.18;3.28;;;;;;;22.43;40.43;94339.06;5083405;28;20031;-79
2023/08/13 08:08:01;;;;;;;3.80;3.08;;;;;;;22.52;40.70;94350.34;5076402;28;20020;-79
2023/08/13 08:10:28;;;;;;;6.63;3.08;;;;;;;22.45;39.81;94348.34;5074691;28;20036;-80
2023/08/13 08:12:53;;;;;;;4.65;3.58;;;;;;;22.33;40.37;94337.81;5066855;28;20051;-79
2023/08/13 08:15:21;;;;;;;4.43;3.17;;;;;;;22.32;40.25;94322.72;5074683;28;21084;-78
2023/08/13 08:17:46;;;;;;;3.95;3.25;;;;;;;22.13;40.57;94339.94;5075128;28;20375;-78
2023/08/13 08:20:12;;;;;;;3.33;3.00;;;;;;;22.37;41.11;94330.50;5074741;28;20054;-78
2023/08/13 08:22:37;;;;;;;4.47;3.75;;;;;;;22.29;41.47;94329.63;5075648;28;20035;-77
2023/08/13 08:25:07;;;;;;;5.35;3.60;;;;;;;21.76;40.91;94322.91;5075277;28;20032;-79
2023/08/13 08:27:33;;;;;;;3.80;3.50;;;;;;;21.99;40.84;94323.56;5076177;28;20032;-80
2023/08/13 08:29:58;;;;;;;4.63;3.72;;;;;;;21.98;40.39;94321.22;5076800;28;20934;-77
2023/08/13 08:32:23;;;;;;;8.95;3.58;;;;;;;21.63;40.89;94324.34;5073980;28;20134;-78
2023/08/13 08:34:49;;;;;;;4.88;3.28;;;;;;;21.90;40.83;94312.25;5073588;28;20377;-78
2023/08/13 08:37:14;;;;;;;3.67;3.03;;;;;;;21.76;40.95;94317.50;5074171;28;20119;-78
2023/08/13 08:39:40;;;;;;;6.07;3.00;;;;;;;21.59;40.87;94320.81;5073929;28;20495;-79
2023/08/13 08:42:06;;;;;;;6.10;3.00;;;;;;;21.87;40.77;94307.56;5075556;28;20111;-81
2023/08/13 08:44:33;;;;;;;6.53;3.40;;;;;;;21.80;40.86;94313.69;5074344;28;20383;-78
2023/08/13 08:46:59;;;;;;;4.65;3.20;;;;;;;21.59;40.96;94301.88;5077115;28;20112;-79
2023/08/13 08:49:26;;;;;;;3.15;2.70;;;;;;;21.75;40.47;94316.75;5077058;28;20303;-77
2023/08/13 08:51:52;;;;;;;4.20;3.35;;;;;;;22.13;40.38;94299.31;5077185;28;20132;-79
2023/08/13 08:54:18;;;;;;;4.20;3.35;;;;;;;22.55;39.86;94309.72;5076907;28;20028;-79
2023/08/13 08:56:44;;;;;;;4.65;2.95;;;;;;;22.83;40.78;94303.69;5080123;28;20306;-77
2023/08/13 08:59:09;;;;;;;6.45;3.80;;;;;;;22.57;38.82;94307.41;5080995;28;20608;-78
2023/08/13 09:01:35;;;;;;;3.72;3.05;;;;;;;22.34;38.18;94308.78;5079652;28;20028;-78
2023/08/13 09:04:01;;;;;;;3.35;2.78;;;;;;;22.26;38.15;94289.75;5079692;28;20040;-78
2023/08/13 09:06:58;;;;;;;4.15;2.97;;;;;;;22.41;38.57;94306.13;5078898;28;20630;-77
2023/08/13 09:09:25;;;;;;;5.65;3.40;;;;;;;22.00;38.54;94300.72;5070394;28;20439;-78
2023/08/13 09:11:51;;;;;;;5.20;3.10;;;;;;;21.80;38.63;94288.56;5071121;28;20044;-78
2023/08/13 09:14:18;;;;;;;4.93;3.08;;;;;;;22.33;40.62;94290.97;5081024;28;20034;-79
2023/08/13 09:16:47;;;;;;;6.38;3.42;;;;;;;22.13;38.84;94283.06;5078573;28;20044;-77
2023/08/13 09:19:15;;;;;;;2.92;2.25;;;;;;;22.46;39.13;94294.94;5010307;28;20041;-80
2023/08/13 09:21:48;;;;;;;4.10;3.25;;;;;;;22.48;39.03;94295.34;4974287;28;20126;-80
2023/08/13 09:24:13;;;;;;;5.78;3.15;;;;;;;22.31;38.25;94280.50;5010556;28;20546;-79
2023/08/13 09:26:39;;;;;;;5.35;2.72;;;;;;;22.05;38.21;94278.72;5078591;28;20028;-77
2023/08/13 09:29:08;;;;;;;5.50;3.05;;;;;;;22.08;38.64;94269.84;5076451;28;20075;-79
2023/08/13 09:31:34;;;;;;;3.50;2.60;;;;;;;22.39;38.54;94281.34;5079092;28;20089;-78
2023/08/13 09:34:00;;;;;;;3.97;2.55;;;;;;;22.42;37.86;94272.44;5080302;28;20040;-79
2023/08/13 09:36:27;;;;;;;3.50;3.10;;;;;;;22.36;37.94;94273.94;5078012;28;20466;-77
2023/08/13 09:38:52;;;;;;;3.40;2.90;;;;;;;22.53;38.47;94284.94;5077699;28;20032;-79
2023/08/13 09:41:19;;;;;;;4.15;3.35;;;;;;;22.55;38.30;94277.19;5081041;28;20078;-77
2023/08/13 09:43:47;;;;;;;4.38;3.25;;;;;;;22.34;38.20;94279.72;5078378;28;20491;-80
2023/08/13 09:46:19;;;;;;;5.18;3.20;;;;;;;22.41;38.30;94285.22;5079244;28;20496;-77
2023/08/13 09:48:46;;;;;;;4.80;2.83;;;;;;;22.57;38.98;94284.94;5078120;28;20043;-78
2023/08/13 09:51:13;;;;;;;8.70;3.08;;;;;;;22.85;38.10;94287.81;5077844;28;20808;-79
2023/08/13 09:53:44;;;;;;;5.97;2.85;;;;;;;22.30;38.67;94285.13;5078557;28;20131;-77
2023/08/13 09:56:11;;;;;;;3.63;3.22;;;;;;;22.53;38.69;94284.16;5080080;28;20028;-78
2023/08/13 09:58:36;;;;;;;4.57;3.03;;;;;;;22.44;38.67;94270.16;5080799;28;20573;-77
2023/08/13 10:01:02;;;;;;;4.70;3.17;;;;;;;22.49;38.41;94275.19;5081406;28;20036;-80
2023/08/13 10:03:30;;;;;;;7.18;3.10;;;;;;;22.54;38.71;94282.97;5085983;28;20047;-78
2023/08/13 10:05:56;;;;;;;4.32;2.97;;;;;;;22.63;39.26;94278.03;5086910;28;20063;-79
2023/08/13 10:08:22;;;;;;;3.10;2.70;;;;;;;22.46;39.05;94281.38;5083617;28;20109;-78
2023/08/13 10:10:49;;;;;;;4.20;3.13;;;;;;;22.46;39.42;94278.66;5087624;27;20040;-78
2023/08/13 10:13:14;;;;;;;3.97;2.95;;;;;;;22.33;39.64;94290.97;5080326;28;20044;-78
2023/08/13 10:15:41;;;;;;;5.35;2.95;;;;;;;22.70;39.44;94278.03;5084172;28;20040;-79
2023/08/13 10:18:06;;;;;;;5.80;3.33;;;;;;;22.67;39.24;94289.66;5083465;28;20035;-77
2023/08/13 10:20:32;;;;;;;4.65;3.15;;;;;;;22.70;38.64;94286.97;5087089;27;20085;-77
2023/08/13 10:22:58;;;;;;;5.70;3.10;;;;;;;22.82;39.26;94280.44;5075792;28;20142;-80
2023/08/13 10:25:28;;;;;;;5.40;3.40;;;;;;;23.17;38.91;94286.06;5075065;28;20047;-80
2023/08/13 10:27:54;;;;;;;3.28;2.97;;;;;;;23.07;38.52;94259.66;5072011;28;20198;-78
2023/08/13 10:30:20;;;;;;;5.85;3.25;;;;;;;23.05;38.35;94277.47;5076255;28;20657;-79
2023/08/13 10:32:49;;;;;;;3.35;3.05;;;;;;;22.94;38.90;94271.22;5072499;28;20308;-79
2023/08/13 10:35:24;;;;;;;3.83;3.30;;;;;;;22.62;38.62;94273.75;5062284;28;20044;-79
2023/08/13 10:37:50;;;;;;;;;;;;;;;22.56;39.00;94275.25;5074187;28;20086;-78
2023/08/13 10:40:18;;;;;;;3.53;3.10;;;;;;;22.78;39.22;94263.38;5068755;28;19920;-77
2023/08/13 10:42:43;;;;;;;4.70;3.15;;;;;;;22.76;38.91;94265.69;5072632;28;20032;-77
2023/08/13 10:45:12;;;;;;;4.57;3.50;;;;;;;22.86;38.93;94262.28;5069744;28;20032;-79
2023/08/13 10:47:38;;;;;;;3.28;2.97;;;;;;;23.07;38.66;94264.34;5076103;28;20035;-78
2023/08/13 10:50:15;;;;;;;3.88;3.33;;;;;;;23.09;38.25;94268.19;5072297;28;20619;-79
2023/08/13 10:52:41;;;;;;;3.55;2.92;;;;;;;23.07;38.57;94242.63;5074932;28;20048;-79
2023/08/13 10:55:09;;;;;;;7.22;3.97;;;;;;;23.09;38.47;94273.63;5083063;28;20050;-80
2023/08/13 10:57:35;;;;;;;5.22;3.80;;;;;;;23.35;38.33;94269.84;5078373;28;20040;-79
2023/08/13 11:00:06;;;;;;;5.32;3.35;;;;;;;23.31;38.26;94262.88;5086178;28;20073;-79
2023/08/13 11:02:32;;;;;;;3.55;3.03;;;;;;;23.09;38.82;94251.16;5087656;28;20145;-78
2023/08/13 11:04:57;;;;;;;5.95;3.30;;;;;;;23.16;39.14;94251.19;5085171;28;20081;-79
2023/08/13 11:07:23;;;;;;;8.15;3.90;;;;;;;23.36;38.74;94254.34;5078407;28;20035;-78
2023/08/13 11:09:49;;;;;;;5.03;3.33;;;;;;;23.27;39.00;94256.66;5068808;28;20043;-79
2023/08/13 11:12:15;;;;;;;4.60;3.88;;;;;;;23.23;38.66;94256.63;5069550;28;20771;-79
2023/08/13 11:14:41;;;;;;;4.82;4.43;;;;;;;23.34;38.32;94262.09;5073212;28;20038;-80
2023/08/13 11:17:07;;;;;;;6.80;5.88;;;;;;;23.17;38.93;94249.25;5073999;28;20385;-79
2023/08/13 11:19:33;;;;;;;6.07;4.10;;;;;;;23.00;38.87;94254.22;5076006;28;20443;-78
2023/08/13 11:21:59;;;;;;;5.00;3.42;;;;;;;23.19;38.90;94255.06;5078978;28;20043;-78
2023/08/13 11:24:25;;;;;;;6.85;4.40;;;;;;;23.30;38.86;94247.72;5089751;27;20051;-78
2023/08/13 11:26:52;;;;;;;4.38;3.97;;;;;;;23.38;38.53;94246.59;5078683;28;20500;-80
2023/08/13 11:29:21;;;;;;;5.75;4.93;;;;;;;23.59;37.90;94246.66;5073278;28;20028;-79